Terminal Aerodrome Forecast
Issued by NWS

Home | Current Version | Previous Version | Text Only | Print | Product List | Glossary Off
Versions: 1 2 3 4 5 6 7 8 9 10 11 12 13 14 15 16 17

000
FTUS43 KOAX 242325
TAFCDR
TAF
KCDR 242325Z 2500/2524 21006KT P6SM BKN300
     FM251400 33008KT P6SM SCT010
     FM251600 01014G20KT P6SM OVC008
     FM251900 01013KT 1SM -SN OVC006=

USA.gov is the U.S. government's official web portal to all federal, state and local government web resources and services.